createdAt,value
2023-05-08T00:02:15.044Z,10.48
2023-05-08T00:04:42.223Z,11.80
2023-05-08T00:07:09.628Z,11.98
2023-05-08T00:09:36.755Z,10.80
2023-05-08T00:12:04.135Z,10.80
2023-05-08T00:14:31.340Z,12.43
2023-05-08T00:16:58.536Z,11.32
2023-05-08T00:19:26.035Z,12.95
2023-05-08T00:21:53.233Z,10.00
2023-05-08T00:24:20.398Z,11.02
2023-05-08T00:26:48.297Z,10.02
2023-05-08T00:29:15.575Z,11.13
2023-05-08T00:31:42.783Z,12.18
2023-05-08T00:34:10.004Z,12.00
2023-05-08T00:36:37.096Z,10.48
2023-05-08T00:39:04.249Z,11.82
2023-05-08T00:41:31.505Z,12.07
2023-05-08T00:43:58.667Z,12.38
2023-05-08T00:46:26.268Z,12.75
2023-05-08T00:48:54.033Z,11.68
2023-05-08T00:51:22.244Z,11.07
2023-05-08T00:53:49.703Z,11.00
2023-05-08T00:56:17.454Z,10.85
2023-05-08T00:58:45.982Z,11.50
2023-05-08T01:01:13.290Z,11.88
2023-05-08T01:03:41.365Z,13.32
2023-05-08T01:06:08.907Z,10.95
2023-05-08T01:08:36.210Z,12.48
2023-05-08T01:11:25.427Z,12.55
2023-05-08T01:14:16.490Z,15.52
2023-05-08T01:17:08.142Z,13.82
2023-05-08T01:20:04.888Z,11.63
2023-05-08T01:23:05.588Z,11.25
2023-05-08T01:25:55.881Z,12.00
2023-05-08T01:28:47.349Z,12.00
2023-05-08T01:31:23.344Z,11.85
2023-05-08T01:33:57.236Z,11.82
2023-05-08T01:36:40.327Z,11.73
2023-05-08T01:39:54.044Z,11.18
2023-05-08T01:42:24.150Z,11.90
2023-05-08T01:45:00.282Z,10.57
2023-05-08T01:47:31.250Z,12.40
2023-05-08T01:50:07.809Z,11.95
2023-05-08T01:52:45.726Z,11.10
2023-05-08T01:55:20.770Z,11.98
2023-05-08T01:57:52.578Z,12.40
2023-05-08T02:00:22.638Z,12.07
2023-05-08T02:02:51.721Z,12.60
2023-05-08T02:05:21.720Z,10.85
2023-05-08T02:07:52.329Z,11.43
2023-05-08T02:10:21.003Z,11.73
2023-05-08T02:12:50.286Z,9.93
2023-05-08T02:15:20.423Z,10.23
2023-05-08T02:17:50.684Z,11.18
2023-05-08T02:20:20.692Z,11.07
2023-05-08T02:22:51.836Z,10.88
2023-05-08T02:25:19.866Z,10.48
2023-05-08T02:27:50.090Z,9.80
2023-05-08T02:30:19.170Z,9.02
2023-05-08T02:32:50.131Z,10.80
2023-05-08T02:35:19.780Z,10.38
2023-05-08T02:37:55.641Z,9.75
2023-05-08T02:40:25.371Z,11.60
2023-05-08T02:42:52.877Z,9.75
2023-05-08T02:45:20.605Z,10.40
2023-05-08T02:47:51.543Z,10.80
2023-05-08T02:50:27.718Z,9.43
2023-05-08T02:53:03.480Z,11.77
2023-05-08T02:55:53.366Z,11.30
2023-05-08T02:58:55.984Z,10.23
2023-05-08T03:01:42.403Z,10.73
2023-05-08T03:04:13.067Z,9.15
2023-05-08T03:06:47.319Z,10.50
2023-05-08T03:09:21.502Z,10.38
2023-05-08T03:11:53.943Z,10.05
2023-05-08T03:14:25.314Z,9.57
2023-05-08T03:16:56.207Z,10.48
2023-05-08T03:19:28.781Z,9.93
2023-05-08T03:21:58.570Z,11.23
2023-05-08T03:24:28.527Z,11.07
2023-05-08T03:26:57.570Z,12.90
2023-05-08T03:29:26.071Z,10.23
2023-05-08T03:31:54.731Z,10.38
2023-05-08T03:34:24.194Z,11.57
2023-05-08T03:36:52.161Z,9.45
2023-05-08T03:39:19.540Z,9.82
2023-05-08T03:41:48.500Z,12.02
2023-05-08T03:44:18.570Z,11.82
2023-05-08T03:46:51.347Z,11.63
2023-05-08T03:49:20.603Z,10.63
2023-05-08T03:51:48.574Z,10.18
2023-05-08T03:54:15.743Z,10.18
2023-05-08T03:56:46.376Z,11.77
2023-05-08T03:59:44.747Z,10.10
2023-05-08T04:02:21.554Z,9.82
2023-05-08T04:04:55.838Z,10.13
2023-05-08T04:07:43.352Z,10.68
2023-05-08T04:10:17.248Z,12.18
2023-05-08T04:13:02.815Z,10.23
2023-05-08T04:15:31.979Z,10.02
2023-05-08T04:18:08.570Z,10.38
2023-05-08T04:20:41.690Z,9.98
2023-05-08T04:23:12.021Z,9.70
2023-05-08T04:25:41.571Z,11.10
2023-05-08T04:28:09.425Z,9.75
2023-05-08T04:30:37.742Z,10.10
2023-05-08T04:33:06.526Z,12.25
2023-05-08T04:35:34.746Z,11.57
2023-05-08T04:38:03.429Z,9.27
2023-05-08T04:40:31.114Z,8.90
2023-05-08T04:42:58.896Z,10.35
2023-05-08T04:45:27.292Z,10.20
2023-05-08T04:48:01.644Z,10.48
2023-05-08T04:50:29.116Z,9.50
2023-05-08T04:52:56.238Z,10.25
2023-05-08T04:55:23.570Z,9.30
2023-05-08T04:57:50.855Z,10.32
2023-05-08T05:00:18.955Z,11.57
2023-05-08T05:02:47.261Z,10.95
2023-05-08T05:05:14.978Z,10.45
2023-05-08T05:07:42.455Z,10.55
2023-05-08T05:10:11.291Z,10.10
2023-05-08T05:12:38.897Z,10.20
2023-05-08T05:15:06.924Z,10.43
2023-05-08T05:17:36.757Z,10.10
2023-05-08T05:20:06.365Z,9.00
2023-05-08T05:22:33.763Z,11.48
2023-05-08T05:25:01.361Z,10.18
2023-05-08T05:27:29.137Z,9.35
2023-05-08T05:29:56.369Z,9.60
2023-05-08T05:32:23.519Z,12.18
2023-05-08T05:34:51.533Z,9.30
2023-05-08T05:37:18.717Z,9.57
2023-05-08T05:39:45.963Z,11.93
2023-05-08T05:42:13.178Z,9.30
2023-05-08T05:44:40.565Z,11.43
2023-05-08T05:47:10.615Z,10.82
2023-05-08T05:49:43.280Z,9.87
2023-05-08T05:52:11.094Z,11.23
2023-05-08T05:54:38.476Z,10.75
2023-05-08T05:57:06.074Z,10.48
2023-05-08T05:59:33.466Z,9.93
2023-05-08T06:02:00.754Z,8.75
2023-05-08T06:04:28.166Z,10.50
2023-05-08T06:06:55.377Z,9.82
2023-05-08T06:09:22.543Z,10.45
2023-05-08T06:11:52.054Z,9.35
2023-05-08T06:14:19.385Z,10.23
2023-05-08T06:16:46.599Z,10.43
2023-05-08T06:19:13.919Z,10.70
2023-05-08T06:21:41.315Z,13.30
2023-05-08T06:24:08.850Z,10.32
2023-05-08T06:26:36.033Z,13.07
2023-05-08T06:29:03.213Z,11.52
2023-05-08T06:31:30.429Z,10.65
2023-05-08T06:33:57.836Z,11.00
2023-05-08T06:36:25.096Z,9.82
2023-05-08T06:38:52.293Z,10.85
2023-05-08T06:41:19.401Z,10.80
2023-05-08T06:43:46.623Z,11.93
2023-05-08T06:46:13.899Z,10.75
2023-05-08T06:48:41.605Z,10.18
2023-05-08T06:51:08.914Z,10.50
2023-05-08T06:53:36.167Z,9.70
2023-05-08T06:56:03.279Z,9.73
2023-05-08T06:58:32.617Z,9.93
2023-05-08T07:01:03.574Z,9.65
2023-05-08T07:03:31.213Z,10.57
2023-05-08T07:05:58.388Z,10.48
2023-05-08T07:08:26.348Z,10.90
2023-05-08T07:10:54.112Z,11.35
2023-05-08T07:13:22.672Z,10.95
2023-05-08T07:15:50.081Z,10.93
2023-05-08T07:18:17.465Z,10.68
2023-05-08T07:20:44.825Z,10.40
2023-05-08T07:23:11.985Z,10.57
2023-05-08T07:25:39.552Z,13.60
2023-05-08T07:28:06.915Z,10.85
2023-05-08T07:30:34.207Z,10.13
2023-05-08T07:33:01.716Z,10.55
2023-05-08T07:35:29.897Z,12.02
2023-05-08T07:37:57.041Z,10.40
2023-05-08T07:40:24.318Z,12.02
2023-05-08T07:42:51.511Z,11.13
2023-05-08T07:45:18.778Z,11.43
2023-05-08T07:47:56.243Z,11.80
2023-05-08T07:50:26.944Z,10.93
2023-05-08T07:52:54.353Z,10.90
2023-05-08T07:55:21.953Z,12.80
2023-05-08T07:57:49.249Z,12.07
2023-05-08T08:00:17.092Z,12.45
2023-05-08T08:02:45.886Z,11.55
2023-05-08T08:05:13.466Z,11.45
2023-05-08T08:07:40.884Z,11.13
2023-05-08T08:10:08.880Z,12.13
2023-05-08T08:12:36.574Z,10.43
2023-05-08T08:15:04.257Z,12.60
2023-05-08T08:17:31.600Z,11.60
2023-05-08T08:19:58.752Z,12.23
2023-05-08T08:22:26.869Z,11.85
2023-05-08T08:24:56.120Z,11.90
2023-05-08T08:27:24.193Z,12.85
2023-05-08T08:29:56.295Z,10.45
2023-05-08T08:32:26.085Z,11.43
2023-05-08T08:34:53.233Z,12.00
2023-05-08T08:37:20.451Z,11.70
2023-05-08T08:39:48.816Z,11.98
2023-05-08T08:42:16.063Z,10.70
2023-05-08T08:44:43.521Z,10.90
2023-05-08T08:47:14.804Z,10.98
2023-05-08T08:49:48.116Z,11.63
2023-05-08T08:52:32.598Z,11.13
2023-05-08T08:55:03.637Z,12.02
2023-05-08T08:57:34.668Z,11.43
2023-05-08T09:00:05.657Z,12.43
2023-05-08T09:02:33.193Z,10.85
2023-05-08T09:05:01.257Z,11.00
2023-05-08T09:07:30.466Z,10.30
2023-05-08T09:09:57.892Z,11.48
2023-05-08T09:12:25.376Z,12.88
2023-05-08T09:14:52.652Z,12.35
2023-05-08T09:17:19.841Z,12.35
2023-05-08T09:19:50.187Z,13.10
2023-05-08T09:22:17.880Z,11.70
2023-05-08T09:25:01.240Z,10.27
2023-05-08T09:27:31.139Z,10.98
2023-05-08T09:30:07.692Z,11.85
2023-05-08T09:32:38.547Z,12.77
2023-05-08T09:35:07.922Z,12.02
2023-05-08T09:37:43.483Z,13.77
2023-05-08T09:40:21.330Z,13.35
2023-05-08T09:42:51.272Z,12.05
2023-05-08T09:45:30.082Z,14.13
2023-05-08T09:47:57.719Z,12.52
2023-05-08T09:50:26.241Z,13.90
2023-05-08T09:52:53.567Z,13.88
2023-05-08T09:55:20.868Z,13.20
2023-05-08T09:57:55.310Z,13.05
2023-05-08T10:00:23.348Z,13.52
2023-05-08T10:03:03.988Z,13.68
2023-05-08T10:05:36.891Z,14.25
2023-05-08T10:08:24.356Z,14.05
2023-05-08T10:10:51.536Z,14.50
2023-05-08T10:13:18.703Z,14.25
2023-05-08T10:15:46.182Z,12.57
2023-05-08T10:18:18.084Z,13.35
2023-05-08T10:20:48.357Z,12.15
2023-05-08T10:23:17.900Z,13.40
2023-05-08T10:25:49.534Z,11.38
2023-05-08T10:28:19.694Z,12.13
2023-05-08T10:30:50.917Z,13.88
2023-05-08T10:33:21.818Z,12.60
2023-05-08T10:35:49.420Z,13.30
2023-05-08T10:38:17.582Z,12.95
2023-05-08T10:40:45.431Z,13.18
2023-05-08T10:43:13.010Z,13.13
2023-05-08T10:45:40.635Z,11.65
2023-05-08T10:48:48.548Z,13.43
2023-05-08T10:51:38.937Z,12.32
2023-05-08T10:54:13.260Z,12.05
2023-05-08T10:56:43.529Z,11.93
2023-05-08T10:59:20.047Z,11.27
2023-05-08T11:01:50.589Z,12.40
2023-05-08T11:04:22.869Z,12.27
2023-05-08T11:06:53.557Z,10.68
2023-05-08T11:09:22.613Z,11.57
2023-05-08T11:12:24.468Z,11.57
2023-05-08T11:15:03.663Z,11.40
2023-05-08T11:17:31.003Z,15.15
2023-05-08T11:20:07.325Z,12.65
2023-05-08T11:22:37.477Z,11.98
2023-05-08T11:25:10.263Z,12.68
2023-05-08T11:28:02.281Z,12.32
2023-05-08T11:30:37.753Z,13.68
2023-05-08T11:33:05.618Z,12.10
2023-05-08T11:35:53.806Z,11.32
2023-05-08T11:38:26.784Z,12.60
2023-05-08T11:41:02.850Z,13.60
2023-05-08T11:43:42.034Z,10.85
2023-05-08T11:46:17.981Z,14.23
2023-05-08T11:48:45.601Z,13.32
2023-05-08T11:51:14.287Z,12.55
2023-05-08T11:53:41.706Z,11.55
2023-05-08T11:56:09.634Z,12.60
2023-05-08T11:58:37.127Z,14.60
2023-05-08T12:01:04.524Z,11.88
2023-05-08T12:03:32.085Z,11.48
2023-05-08T12:06:00.681Z,11.70
2023-05-08T12:08:31.715Z,14.13
2023-05-08T12:10:59.037Z,12.02
2023-05-08T12:13:30.737Z,12.90
2023-05-08T12:16:00.581Z,12.90
2023-05-08T12:18:29.567Z,11.82
2023-05-08T12:21:01.362Z,11.35
2023-05-08T12:23:30.209Z,12.17
2023-05-08T12:26:02.059Z,12.07
2023-05-08T12:28:29.951Z,11.07
2023-05-08T12:30:57.376Z,12.63
2023-05-08T12:33:25.344Z,11.90
2023-05-08T12:35:52.628Z,11.65
2023-05-08T12:38:19.961Z,11.43
2023-05-08T12:40:53.408Z,12.15
2023-05-08T12:43:20.732Z,12.88
2023-05-08T12:45:52.916Z,12.55
2023-05-08T12:48:20.910Z,11.60
2023-05-08T12:50:48.030Z,11.27
2023-05-08T12:53:18.184Z,11.73
2023-05-08T12:55:58.367Z,12.02
2023-05-08T12:58:28.589Z,11.15
2023-05-08T13:01:13.892Z,13.02
2023-05-08T13:03:41.569Z,12.85
2023-05-08T13:06:21.113Z,12.23
2023-05-08T13:08:55.537Z,12.30
2023-05-08T13:11:33.555Z,12.52
2023-05-08T13:14:01.035Z,12.32
2023-05-08T13:16:28.499Z,12.73
2023-05-08T13:18:55.620Z,12.23
2023-05-08T13:21:23.044Z,14.13
2023-05-08T13:23:51.068Z,13.80
2023-05-08T13:26:18.255Z,12.63
2023-05-08T13:28:45.511Z,14.00
2023-05-08T13:31:12.639Z,14.25
2023-05-08T13:33:39.815Z,13.73
2023-05-08T13:36:07.175Z,12.63
2023-05-08T13:38:35.060Z,13.30
2023-05-08T13:41:02.227Z,13.50
2023-05-08T13:43:29.409Z,10.68
2023-05-08T13:45:56.554Z,11.05
2023-05-08T13:48:23.665Z,12.80
2023-05-08T13:50:50.828Z,13.40
2023-05-08T13:53:18.029Z,11.73
2023-05-08T13:55:45.297Z,11.20
2023-05-08T13:58:12.478Z,9.55
2023-05-08T14:00:42.800Z,11.77
2023-05-08T14:03:09.994Z,13.38
2023-05-08T14:05:37.279Z,12.50
2023-05-08T14:08:04.561Z,12.25
2023-05-08T14:10:31.698Z,11.90
2023-05-08T14:12:58.980Z,12.50
2023-05-08T14:15:31.790Z,12.73
2023-05-08T14:18:04.145Z,12.50
2023-05-08T14:20:31.400Z,13.45
2023-05-08T14:23:00.094Z,12.45
2023-05-08T14:25:27.561Z,11.30
2023-05-08T14:27:55.002Z,13.25
2023-05-08T14:30:22.090Z,12.00
2023-05-08T14:32:49.320Z,11.25
2023-05-08T14:35:16.813Z,11.90
2023-05-08T14:37:44.069Z,11.93
2023-05-08T14:40:11.409Z,11.85
2023-05-08T14:42:38.948Z,13.65
2023-05-08T14:45:06.662Z,12.32
2023-05-08T14:47:34.239Z,13.38
2023-05-08T14:50:01.555Z,13.13
2023-05-08T14:52:28.891Z,12.75
2023-05-08T14:54:56.159Z,13.68
2023-05-08T14:57:23.352Z,13.52
2023-05-08T14:59:55.124Z,13.18
2023-05-08T15:02:24.094Z,12.75
2023-05-08T15:04:51.456Z,13.02
2023-05-08T15:07:18.621Z,12.32
2023-05-08T15:09:45.923Z,12.63
2023-05-08T15:12:13.082Z,12.52
2023-05-08T15:14:40.292Z,13.45
2023-05-08T15:17:07.435Z,12.25
2023-05-08T15:19:34.565Z,12.43
2023-05-08T15:22:01.708Z,14.20
2023-05-08T15:24:28.848Z,12.65
2023-05-08T15:26:56.230Z,12.30
2023-05-08T15:29:23.386Z,10.13
2023-05-08T15:31:51.760Z,13.35
2023-05-08T15:34:18.950Z,12.90
2023-05-08T15:36:46.079Z,12.00
2023-05-08T15:39:13.732Z,12.65
2023-05-08T15:41:41.648Z,12.70
2023-05-08T15:44:08.815Z,13.05
2023-05-08T15:46:36.039Z,12.48
2023-05-08T15:49:03.323Z,14.38
2023-05-08T15:51:30.772Z,14.38
2023-05-08T15:53:58.450Z,14.20
2023-05-08T15:56:26.166Z,16.95
2023-05-08T15:58:53.770Z,14.05
2023-05-08T16:01:21.495Z,15.88
2023-05-08T16:03:48.647Z,15.05
2023-05-08T16:06:17.117Z,14.30
2023-05-08T16:08:44.352Z,15.18
2023-05-08T16:11:11.574Z,16.33
2023-05-08T16:13:38.814Z,16.17
2023-05-08T16:16:06.622Z,14.85
2023-05-08T16:18:33.914Z,15.60
2023-05-08T16:21:01.257Z,15.82
2023-05-08T16:23:28.412Z,15.82
2023-05-08T16:25:55.573Z,15.55
2023-05-08T16:28:22.662Z,15.20
2023-05-08T16:30:49.792Z,16.65
2023-05-08T16:33:16.916Z,15.00
2023-05-08T16:35:44.198Z,16.30
2023-05-08T16:38:11.469Z,13.93
2023-05-08T16:40:38.682Z,14.75
2023-05-08T16:43:05.863Z,16.42
2023-05-08T16:45:34.977Z,15.10
2023-05-08T16:48:02.897Z,13.95
2023-05-08T16:50:30.127Z,16.40
2023-05-08T16:52:57.905Z,17.65
2023-05-08T16:55:25.103Z,16.15
2023-05-08T16:57:54.202Z,15.88
2023-05-08T17:00:21.684Z,16.55
2023-05-08T17:02:48.872Z,16.30
2023-05-08T17:05:16.183Z,15.50
2023-05-08T17:07:43.401Z,16.75
2023-05-08T17:10:10.925Z,15.93
2023-05-08T17:12:38.153Z,17.13
2023-05-08T17:15:05.880Z,15.98
2023-05-08T17:17:33.054Z,16.27
2023-05-08T17:20:00.381Z,15.93
2023-05-08T17:22:27.520Z,16.38
2023-05-08T17:24:54.703Z,16.70
2023-05-08T17:27:21.955Z,16.88
2023-05-08T17:29:49.521Z,16.23
2023-05-08T17:32:16.804Z,17.38
2023-05-08T17:34:44.016Z,16.63
2023-05-08T17:37:12.157Z,17.17
2023-05-08T17:39:39.490Z,20.17
2023-05-08T17:42:06.573Z,16.55
2023-05-08T17:44:33.822Z,17.67
2023-05-08T17:47:00.921Z,18.40
2023-05-08T17:49:28.238Z,17.95
2023-05-08T17:51:55.399Z,22.85
2023-05-08T17:54:22.665Z,17.92
2023-05-08T17:56:49.863Z,16.33
2023-05-08T17:59:16.992Z,16.50
2023-05-08T18:01:44.183Z,15.00
2023-05-08T18:04:11.250Z,15.38
2023-05-08T18:06:38.475Z,18.17
2023-05-08T18:09:06.023Z,17.58
2023-05-08T18:11:33.163Z,15.50
2023-05-08T18:14:00.200Z,17.30
2023-05-08T18:16:27.423Z,14.68
2023-05-08T18:18:54.554Z,14.98
2023-05-08T18:21:21.651Z,14.38
2023-05-08T18:23:48.827Z,15.60
2023-05-08T18:26:16.851Z,15.02
2023-05-08T18:28:44.900Z,18.58
2023-05-08T18:31:13.858Z,15.25
2023-05-08T18:33:40.967Z,14.65
2023-05-08T18:36:08.188Z,16.30
2023-05-08T18:38:35.929Z,13.82
2023-05-08T18:41:04.113Z,18.00
2023-05-08T18:43:31.370Z,14.93
2023-05-08T18:46:00.890Z,15.88
2023-05-08T18:48:28.202Z,16.67
2023-05-08T18:50:59.020Z,16.20
2023-05-08T18:53:26.267Z,17.10
2023-05-08T18:55:53.391Z,16.77
2023-05-08T18:58:20.676Z,14.63
2023-05-08T19:00:47.964Z,16.83
2023-05-08T19:03:15.390Z,16.02
2023-05-08T19:05:42.670Z,16.67
2023-05-08T19:08:10.100Z,15.63
2023-05-08T19:10:37.196Z,17.08
2023-05-08T19:13:04.455Z,18.00
2023-05-08T19:15:31.676Z,16.83
2023-05-08T19:17:58.770Z,19.98
2023-05-08T19:20:26.068Z,17.15
2023-05-08T19:22:53.182Z,16.65
2023-05-08T19:25:20.602Z,16.88
2023-05-08T19:27:47.876Z,19.15
2023-05-08T19:30:15.703Z,17.80
2023-05-08T19:32:43.048Z,16.30
2023-05-08T19:35:10.413Z,20.55
2023-05-08T19:37:38.364Z,16.83
2023-05-08T19:40:06.768Z,18.08
2023-05-08T19:42:33.981Z,17.80
2023-05-08T19:45:01.694Z,18.65
2023-05-08T19:47:28.909Z,17.08
2023-05-08T19:49:56.015Z,19.13
2023-05-08T19:52:23.137Z,19.75
2023-05-08T19:54:50.353Z,17.67
2023-05-08T19:57:17.687Z,20.33
2023-05-08T19:59:44.782Z,18.40
2023-05-08T20:02:11.906Z,18.83
2023-05-08T20:04:54.598Z,19.23
2023-05-08T20:07:26.649Z,16.35
2023-05-08T20:09:53.719Z,18.20
2023-05-08T20:12:20.811Z,17.33
2023-05-08T20:14:47.928Z,16.13
2023-05-08T20:17:15.146Z,16.80
2023-05-08T20:19:42.389Z,18.13
2023-05-08T20:22:11.334Z,16.42
2023-05-08T20:24:38.398Z,17.85
2023-05-08T20:27:05.638Z,19.25
2023-05-08T20:29:32.969Z,17.02
2023-05-08T20:32:00.217Z,16.15
2023-05-08T20:34:27.386Z,15.68
2023-05-08T20:36:54.545Z,16.17
2023-05-08T20:39:21.817Z,16.25
2023-05-08T20:41:48.989Z,18.95
2023-05-08T20:44:19.448Z,16.35
2023-05-08T20:46:46.666Z,18.80
2023-05-08T20:49:14.206Z,17.13
2023-05-08T20:51:41.444Z,18.38
2023-05-08T20:54:08.634Z,19.05
2023-05-08T20:56:38.575Z,21.23
2023-05-08T20:59:05.903Z,19.65
2023-05-08T21:01:33.019Z,18.05
2023-05-08T21:04:00.138Z,17.42
2023-05-08T21:06:27.378Z,18.67
2023-05-08T21:08:54.564Z,17.20
2023-05-08T21:11:21.579Z,18.80
2023-05-08T21:13:48.738Z,17.92
2023-05-08T21:16:16.452Z,18.08
2023-05-08T21:18:43.666Z,18.92
2023-05-08T21:21:18.047Z,17.90
2023-05-08T21:23:45.169Z,18.30
2023-05-08T21:26:12.624Z,19.83
2023-05-08T21:28:39.763Z,18.33
2023-05-08T21:31:07.270Z,17.42
2023-05-08T21:33:34.511Z,21.08
2023-05-08T21:36:01.624Z,19.58
2023-05-08T21:38:28.742Z,17.85
2023-05-08T21:40:56.097Z,17.88
2023-05-08T21:43:23.239Z,18.08
2023-05-08T21:45:50.339Z,16.13
2023-05-08T21:48:17.486Z,18.70
2023-05-08T21:50:44.723Z,16.50
2023-05-08T21:53:11.890Z,17.50
2023-05-08T21:55:39.009Z,18.88
2023-05-08T21:58:06.169Z,16.90
2023-05-08T22:00:33.335Z,17.73
2023-05-08T22:03:00.571Z,17.85
2023-05-08T22:05:27.852Z,17.42
2023-05-08T22:07:55.054Z,21.35
2023-05-08T22:10:22.410Z,18.42
2023-05-08T22:12:49.571Z,18.42
2023-05-08T22:15:28.974Z,20.95
2023-05-08T22:17:57.198Z,18.73
2023-05-08T22:20:24.592Z,22.10
2023-05-08T22:22:51.768Z,22.13
2023-05-08T22:25:19.061Z,22.88
2023-05-08T22:27:46.392Z,22.33
2023-05-08T22:30:13.758Z,22.02
2023-05-08T22:32:41.074Z,22.38
2023-05-08T22:35:08.700Z,20.88
2023-05-08T22:37:35.802Z,23.20
2023-05-08T22:40:02.976Z,24.05
2023-05-08T22:42:30.198Z,22.65
2023-05-08T22:44:57.402Z,23.17
2023-05-08T22:47:26.400Z,24.77
2023-05-08T22:49:54.470Z,23.30
2023-05-08T22:52:21.636Z,26.27
2023-05-08T22:54:48.746Z,24.05
2023-05-08T22:57:15.991Z,22.45
2023-05-08T22:59:43.131Z,22.45
2023-05-08T23:02:10.335Z,24.88
2023-05-08T23:04:37.649Z,25.38
2023-05-08T23:07:04.946Z,24.73
2023-05-08T23:09:32.117Z,23.67
2023-05-08T23:11:59.270Z,22.13
2023-05-08T23:14:26.467Z,22.92
2023-05-08T23:16:53.655Z,23.92
2023-05-08T23:19:21.029Z,26.63
2023-05-08T23:21:48.191Z,27.80
2023-05-08T23:24:15.384Z,23.85
2023-05-08T23:26:42.613Z,22.40
2023-05-08T23:29:09.839Z,25.55
2023-05-08T23:31:37.033Z,26.55
2023-05-08T23:34:04.294Z,25.38
2023-05-08T23:36:32.617Z,24.40
2023-05-08T23:38:59.971Z,23.60
2023-05-08T23:41:27.379Z,23.98
2023-05-08T23:43:55.117Z,22.00
2023-05-08T23:46:22.160Z,21.95
2023-05-08T23:48:49.272Z,24.00
2023-05-08T23:51:16.358Z,22.67
2023-05-08T23:53:43.465Z,26.20
2023-05-08T23:56:10.544Z,23.63
2023-05-08T23:58:37.658Z,23.13
